Overview Statistics Trail Chart Weather Telemetry Raw packets
 

This is the latest recevied weather packets stored in our database for station/object K5OLV. If no packets are shown the sender has not sent any weather packets the latest 10 day(s).

<< 34 35 36 37 38 39 40 >>
Time Temp. Humidity Pressure Rain* Wind** Luminosity Snow
1788380426 35.56° C 51% 1016.8 hPa 0 mm - 534 W/m² -
1788380121 35.56° C 49% 1017 hPa 0 mm - 562 W/m² -
1788379815 34.44° C 50% 1016.8 hPa 0 mm - 540 W/m² -
1788379510 33.33° C 53% 1016.8 hPa 0 mm - 528 W/m² -
1788379219 34.44° C 52% 1016.9 hPa 0 mm - 607 W/m² -
1788378902 34.44° C 51% 1017.1 hPa 0 mm - 600 W/m² -
1788378601 34.44° C 53% 1017.2 hPa 0 mm - 620 W/m² -
1788378295 33.89° C 55% 1017.1 hPa 0 mm - 639 W/m² -
1788377990 33.33° C 57% 1017.2 hPa 0 mm - 650 W/m² -
1788377686 33.89° C 54% 1017.1 hPa 0 mm - 638 W/m² -
1788377384 35° C 54% 1017.2 hPa 0 mm - 655 W/m² -
1788377084 35° C 52% 1017.5 hPa 0 mm - 640 W/m² -
1788376783 33.89° C 54% 1017.7 hPa 0 mm - 633 W/m² -
1788376478 33.89° C 55% 1017.4 hPa 0 mm - 649 W/m² -
1788376173 33.33° C 57% 1017.7 hPa 0 mm - 663 W/m² -
1788375869 34.44° C 55% 1017.4 hPa 0 mm - 676 W/m² -
1788375564 32.78° C 56% 1017.7 hPa 0 mm - 670 W/m² -
1788375260 32.78° C 56% 1017.9 hPa 0 mm - 659 W/m² -
1788374955 33.33° C 58% 1017.9 hPa 0 mm - 661 W/m² -
1788374650 33.33° C 57% 1018.1 hPa 0 mm - 636 W/m² -
1788374346 34.44° C 54% 1018 hPa 0 mm - 631 W/m² -
1788374057 33.89° C 57% 1018.3 hPa 0 mm - 612 W/m² -
1788373738 33.33° C 57% 1017.9 hPa 0 mm - 632 W/m² -
1788373434 32.78° C 59% 1017.9 hPa 0 mm - 652 W/m² -
1788373130 33.89° C 58% 1018.2 hPa 0 mm - 661 W/m² -

* Rain latest hour (hover to see other rain measurements)
** Current wind speed in m/s (hover to see current wind gust speed)